Time;durP1;ratioP1;P1;durP2;ratioP2;P2;SDS_P1;SDS_P2;PMS_P1;PMS_P2;Temp;Humidity;BMP_temperature;BMP_pressure;BME280_temperature;BME280_humidity;BME280_pressure;Samples;Min_cycle;Max_cycle;Signal;HPM_P1;HPM_P2
2023/06/14 00:01:14;;;;;;;6.03;3.00;;;;;;;22.19;39.37;101434.22;4963024;28;20165;-68
2023/06/14 00:03:40;;;;;;;5.03;2.63;;;;;;;22.03;40.10;101423.97;4965545;28;20054;-68
2023/06/14 00:06:07;;;;;;;5.55;2.92;;;;;;;22.02;39.48;101431.16;4961265;28;20054;-67
2023/06/14 00:08:33;;;;;;;5.43;2.38;;;;;;;22.00;39.97;101430.53;4965180;28;20499;-67
2023/06/14 00:10:59;;;;;;;8.98;2.90;;;;;;;21.95;39.61;101422.31;4965494;28;20184;-67
2023/06/14 00:13:27;;;;;;;9.38;3.10;;;;;;;22.02;39.89;101433.81;4968039;28;20054;-67
2023/06/14 00:15:54;;;;;;;10.93;2.75;;;;;;;21.99;39.82;101434.22;4953349;28;20082;-67
2023/06/14 00:18:23;;;;;;;10.20;2.42;;;;;;;21.94;39.70;101428.72;4965224;28;20629;-67
2023/06/14 00:20:51;;;;;;;7.13;2.70;;;;;;;21.88;40.40;101433.03;4947520;28;20475;-67
2023/06/14 00:23:18;;;;;;;6.18;2.92;;;;;;;21.79;40.43;101436.09;4974544;28;20499;-66
2023/06/14 00:25:45;;;;;;;6.60;2.63;;;;;;;21.75;40.52;101430.34;4960151;28;20829;-67
2023/06/14 00:28:12;;;;;;;8.43;2.78;;;;;;;21.72;40.40;101433.44;4969527;28;20057;-67
2023/06/14 00:30:38;;;;;;;5.40;2.55;;;;;;;21.69;40.30;101440.00;4958867;28;20070;-67
2023/06/14 00:33:05;;;;;;;8.95;3.22;;;;;;;21.65;40.69;101440.63;4962228;28;20055;-67
2023/06/14 00:35:32;;;;;;;7.15;2.55;;;;;;;21.64;40.93;101433.63;4960346;28;20047;-67
2023/06/14 00:37:59;;;;;;;5.22;2.67;;;;;;;21.58;41.41;101445.97;4965562;28;20496;-67
2023/06/14 00:40:25;;;;;;;5.80;2.45;;;;;;;21.57;40.96;101440.84;4975834;28;20550;-67
2023/06/14 00:42:52;;;;;;;6.78;2.90;;;;;;;21.53;41.45;101449.22;4973777;28;20046;-67
2023/06/14 00:45:18;;;;;;;6.15;2.38;;;;;;;21.51;41.30;101445.13;4977187;28;20054;-68
2023/06/14 00:47:46;;;;;;;8.13;3.08;;;;;;;21.44;41.69;101452.31;4961853;28;20054;-67
2023/06/14 00:50:13;;;;;;;6.77;2.77;;;;;;;21.41;41.69;101450.84;4975526;28;20085;-67
2023/06/14 00:52:40;;;;;;;7.10;2.72;;;;;;;21.36;42.34;101447.94;4966285;28;20062;-67
2023/06/14 00:55:06;;;;;;;8.18;2.80;;;;;;;21.35;42.31;101451.66;4977351;28;20058;-67
2023/06/14 00:57:37;;;;;;;8.48;2.50;;;;;;;21.32;42.69;101452.03;4970290;28;20854;-68
2023/06/14 01:00:08;;;;;;;4.47;2.70;;;;;;;21.26;42.47;101450.19;4971740;28;20065;-67
2023/06/14 01:02:39;;;;;;;8.10;2.55;;;;;;;21.23;42.47;101448.75;4966776;28;20054;-67
2023/06/14 01:05:09;;;;;;;6.00;2.67;;;;;;;21.22;42.80;101456.94;4967363;28;20476;-66
2023/06/14 01:08:00;;;;;;;8.40;2.65;;;;;;;21.14;42.89;101457.97;4972734;28;20137;-67
2023/06/14 01:10:39;;;;;;;7.65;2.63;;;;;;;21.08;43.45;101464.91;4964110;28;20105;-67
2023/06/14 01:13:15;;;;;;;3.53;2.38;;;;;;;21.04;43.50;101460.19;4969657;28;20129;-67
2023/06/14 01:15:43;;;;;;;6.47;2.70;;;;;;;20.93;43.93;101457.09;4952140;28;20347;-67
2023/06/14 01:18:17;;;;;;;5.75;2.65;;;;;;;20.94;43.74;101452.56;4968063;28;20051;-66
2023/06/14 01:20:49;;;;;;;7.40;2.75;;;;;;;20.86;44.07;101456.22;4966759;28;20050;-67
2023/06/14 01:23:20;;;;;;;4.55;2.35;;;;;;;20.89;43.80;101458.47;4963699;28;20071;-67
2023/06/14 01:25:52;;;;;;;7.63;2.38;;;;;;;20.88;43.76;101451.50;4968269;28;20110;-67
2023/06/14 01:28:21;;;;;;;5.20;2.90;;;;;;;20.78;44.61;101453.75;4938116;28;20038;-67
2023/06/14 01:30:54;;;;;;;11.05;2.78;;;;;;;20.77;44.23;101452.06;4964157;28;20055;-66
2023/06/14 01:33:23;;;;;;;6.00;2.35;;;;;;;20.73;44.86;101451.66;4963527;28;20060;-69
2023/06/14 01:35:51;;;;;;;8.98;2.60;;;;;;;20.68;44.70;101451.44;4969008;28;20050;-66
2023/06/14 01:38:22;;;;;;;14.80;2.85;;;;;;;20.61;44.75;101455.09;4967643;28;20093;-66
2023/06/14 01:40:50;;;;;;;8.65;2.90;;;;;;;20.58;44.96;101458.94;4960036;28;20150;-66
2023/06/14 01:43:18;;;;;;;5.28;2.55;;;;;;;20.57;44.55;101464.47;4960062;28;20089;-67
2023/06/14 01:45:46;;;;;;;;;;;;;;;20.53;45.08;101451.53;4963335;28;20046;-67
2023/06/14 01:48:14;;;;;;;5.15;2.50;;;;;;;20.54;44.78;101455.84;4969049;28;19980;-66
2023/06/14 01:50:40;;;;;;;4.43;2.40;;;;;;;20.49;45.48;101458.28;4964092;28;20074;-66
2023/06/14 01:53:08;;;;;;;4.35;2.42;;;;;;;20.45;45.35;101457.03;4972411;28;20137;-66
2023/06/14 01:55:37;;;;;;;7.03;2.70;;;;;;;20.40;45.47;101455.97;4950535;28;20097;-67
2023/06/14 01:58:03;;;;;;;;;;;;;;;20.35;45.78;101452.03;4954618;28;20556;-66
2023/06/14 02:00:30;;;;;;;7.53;2.35;;;;;;;20.31;45.81;101456.13;4969375;28;19965;-66
2023/06/14 02:02:56;;;;;;;5.07;2.45;;;;;;;20.24;46.02;101455.25;4966117;28;20078;-67
2023/06/14 02:05:23;;;;;;;6.20;2.58;;;;;;;20.20;46.63;101450.50;4970121;28;20129;-67
2023/06/14 02:07:50;;;;;;;7.50;2.60;;;;;;;20.17;46.21;101450.88;4969476;28;20140;-67
2023/06/14 02:10:17;;;;;;;4.55;2.45;;;;;;;20.12;46.39;101448.81;4967531;28;20789;-67
2023/06/14 02:12:44;;;;;;;4.80;2.40;;;;;;;20.09;46.75;101447.38;4974218;28;20054;-67
2023/06/14 02:15:16;;;;;;;5.53;2.80;;;;;;;20.07;46.46;101446.75;4972939;28;20046;-68
2023/06/14 02:17:44;;;;;;;5.30;2.67;;;;;;;20.07;46.78;101448.56;4956789;28;20047;-67
2023/06/14 02:20:11;;;;;;;3.45;2.67;;;;;;;19.99;46.89;101451.38;4960580;28;20185;-67
2023/06/14 02:22:38;;;;;;;6.07;2.25;;;;;;;19.93;47.13;101450.31;4964858;28;20038;-68
2023/06/14 02:25:06;;;;;;;5.22;2.58;;;;;;;19.85;47.03;101443.28;4960886;28;20051;-68
2023/06/14 02:27:33;;;;;;;4.90;2.70;;;;;;;19.79;47.59;101443.25;4970912;28;20697;-67
2023/06/14 02:30:00;;;;;;;5.57;2.75;;;;;;;19.75;47.60;101448.94;4961968;28;20133;-67
2023/06/14 02:32:27;;;;;;;8.30;2.78;;;;;;;19.71;47.79;101446.81;4967257;28;20090;-68
2023/06/14 02:34:54;;;;;;;3.47;2.53;;;;;;;19.71;47.73;101446.81;4983765;28;20054;-67
2023/06/14 02:37:21;;;;;;;9.90;3.00;;;;;;;19.72;48.01;101452.00;4955180;28;20586;-68
2023/06/14 02:39:48;;;;;;;9.02;2.50;;;;;;;19.66;48.14;101452.75;4977374;28;20492;-67
2023/06/14 02:42:14;;;;;;;9.02;2.75;;;;;;;19.61;48.10;101444.50;4952274;28;20059;-68
2023/06/14 02:44:41;;;;;;;5.88;2.55;;;;;;;19.58;48.37;101452.84;4967165;28;20090;-67
2023/06/14 02:47:07;;;;;;;7.03;2.60;;;;;;;19.57;48.36;101456.53;4967539;28;20050;-67
2023/06/14 02:49:34;;;;;;;8.50;2.30;;;;;;;19.52;48.63;101456.28;4937928;28;20047;-68
2023/06/14 02:52:00;;;;;;;5.68;2.45;;;;;;;19.46;48.91;101455.19;4962413;28;20125;-67
2023/06/14 02:54:27;;;;;;;6.38;2.85;;;;;;;19.43;48.77;101458.25;4960793;28;20082;-68
2023/06/14 02:56:53;;;;;;;4.05;2.53;;;;;;;19.38;49.03;101462.47;4950787;28;20089;-68
2023/06/14 02:59:21;;;;;;;5.53;2.65;;;;;;;19.34;49.55;101460.19;4967396;28;20134;-67
2023/06/14 03:01:47;;;;;;;6.97;2.40;;;;;;;19.32;49.60;101464.88;4969357;28;20105;-67
2023/06/14 03:04:15;;;;;;;6.55;2.45;;;;;;;19.31;48.67;101465.91;4960235;28;20142;-68
2023/06/14 03:06:44;;;;;;;5.55;2.40;;;;;;;19.30;49.38;101468.75;4961292;28;20042;-68
2023/06/14 03:09:10;;;;;;;6.15;2.53;;;;;;;19.29;49.52;101470.59;4967005;28;20051;-67
2023/06/14 03:11:36;;;;;;;4.93;2.53;;;;;;;19.24;49.52;101469.50;4958813;28;20053;-67
2023/06/14 03:14:07;;;;;;;4.65;2.20;;;;;;;19.23;49.14;101471.34;4952216;28;20133;-68
2023/06/14 03:16:34;;;;;;;9.40;2.50;;;;;;;19.21;49.68;101480.50;4953051;28;20050;-67
2023/06/14 03:19:01;;;;;;;6.85;2.20;;;;;;;19.17;49.33;101483.53;4966393;28;20456;-67
2023/06/14 03:21:28;;;;;;;4.22;2.50;;;;;;;19.15;48.98;101480.25;4958609;28;20560;-68
2023/06/14 03:23:55;;;;;;;8.57;2.40;;;;;;;19.14;49.76;101481.25;4969494;28;20130;-67
2023/06/14 03:26:22;;;;;;;5.55;2.40;;;;;;;19.09;49.91;101488.97;4972595;28;20050;-68
2023/06/14 03:28:50;;;;;;;4.00;2.42;;;;;;;19.09;50.19;101493.44;4961313;28;20047;-67
2023/06/14 03:31:16;;;;;;;6.90;2.53;;;;;;;19.02;49.88;101496.03;4966420;28;20058;-68
2023/06/14 03:33:43;;;;;;;4.85;2.50;;;;;;;18.98;50.34;101497.44;4963254;28;20059;-67
2023/06/14 03:36:09;;;;;;;5.40;2.22;;;;;;;18.95;50.44;101503.94;4973398;28;20125;-67
2023/06/14 03:38:36;;;;;;;4.47;2.47;;;;;;;18.92;50.29;101499.00;4965259;28;20046;-67
2023/06/14 03:41:03;;;;;;;6.22;2.45;;;;;;;18.91;50.30;101496.50;4963805;28;20409;-67
2023/06/14 03:43:30;;;;;;;6.35;2.58;;;;;;;18.90;51.09;101503.66;4975546;28;20112;-66
2023/06/14 03:45:56;;;;;;;6.83;2.40;;;;;;;18.83;50.87;101491.28;4956383;28;20078;-67
2023/06/14 03:48:23;;;;;;;4.65;2.17;;;;;;;18.83;51.37;101508.06;4949424;28;20090;-67
2023/06/14 03:50:50;;;;;;;6.53;2.40;;;;;;;18.83;51.69;101507.25;4963889;28;20058;-67
2023/06/14 03:53:16;;;;;;;6.32;2.55;;;;;;;18.85;51.39;101507.88;4967679;28;20046;-67
2023/06/14 03:55:43;;;;;;;7.45;2.30;;;;;;;18.83;51.40;101513.38;4967481;28;20047;-68
2023/06/14 03:58:13;;;;;;;7.10;2.40;;;;;;;18.78;51.84;101511.25;4974409;28;20105;-67
2023/06/14 04:00:39;;;;;;;5.80;2.50;;;;;;;18.80;52.03;101521.72;4965135;28;20057;-67
2023/06/14 04:03:06;;;;;;;5.28;2.10;;;;;;;18.75;52.02;101518.75;4966206;28;20097;-67
2023/06/14 04:05:33;;;;;;;9.38;2.70;;;;;;;18.72;52.25;101527.13;4973964;28;20140;-67
2023/06/14 04:08:00;;;;;;;6.57;2.63;;;;;;;18.75;51.91;101519.56;4958686;28;20049;-67
2023/06/14 04:10:27;;;;;;;6.18;2.72;;;;;;;18.73;52.60;101524.25;4974780;28;20042;-67
2023/06/14 04:12:54;;;;;;;8.48;2.45;;;;;;;18.70;52.55;101532.59;4966854;28;20054;-67
2023/06/14 04:15:20;;;;;;;9.00;2.50;;;;;;;18.67;52.80;101529.47;4959052;28;21835;-67
2023/06/14 04:17:48;;;;;;;7.47;2.38;;;;;;;18.68;52.40;101531.13;4976849;28;20063;-67
2023/06/14 04:20:14;;;;;;;7.13;2.33;;;;;;;18.70;52.30;101542.38;4958751;28;20110;-69
2023/06/14 04:22:43;;;;;;;8.82;2.33;;;;;;;18.67;53.07;101542.78;4979474;28;20046;-66
2023/06/14 04:25:09;;;;;;;4.10;2.03;;;;;;;18.68;52.40;101544.41;4972854;28;20078;-67
2023/06/14 04:27:36;;;;;;;4.82;2.60;;;;;;;18.65;53.30;101550.91;4967484;28;20070;-67
2023/06/14 04:30:03;;;;;;;10.40;3.55;;;;;;;18.64;53.10;101551.94;4964199;28;20050;-67
2023/06/14 04:32:33;;;;;;;5.82;3.63;;;;;;;18.62;53.52;101551.28;4968165;28;20105;-67
2023/06/14 04:35:02;;;;;;;6.43;3.50;;;;;;;18.65;53.24;101544.78;4964972;28;20078;-67
2023/06/14 04:37:30;;;;;;;6.90;2.63;;;;;;;18.65;53.35;101552.75;4964183;28;20089;-67
2023/06/14 04:39:57;;;;;;;5.10;2.50;;;;;;;18.65;53.32;101553.56;4968111;28;20078;-67
2023/06/14 04:42:25;;;;;;;7.05;2.70;;;;;;;18.64;53.54;101548.44;4953031;28;20154;-67
2023/06/14 04:44:55;;;;;;;10.40;2.80;;;;;;;18.67;52.99;101554.22;4967976;28;20068;-67
2023/06/14 04:47:22;;;;;;;5.32;2.38;;;;;;;18.60;53.93;101547.97;4954116;28;20093;-67
2023/06/14 04:49:50;;;;;;;4.85;2.40;;;;;;;18.73;53.02;101558.78;4967397;28;20077;-67
2023/06/14 04:52:17;;;;;;;;;;;;;;;18.80;53.47;101566.91;4969306;28;20078;-67
2023/06/14 04:54:43;;;;;;;8.80;2.53;;;;;;;18.79;53.47;101567.88;4958223;28;19977;-67
2023/06/14 04:57:13;;;;;;;9.48;2.75;;;;;;;18.76;54.28;101568.25;4964872;28;20046;-67
2023/06/14 04:59:40;;;;;;;8.20;2.88;;;;;;;18.78;54.06;101566.25;4961403;28;20129;-67
2023/06/14 05:02:08;;;;;;;11.77;2.33;;;;;;;18.79;53.11;101570.53;4972087;28;20109;-67
2023/06/14 05:04:39;;;;;;;9.80;2.50;;;;;;;18.83;53.34;101566.53;4968746;28;20059;-67
2023/06/14 05:07:09;;;;;;;10.73;2.83;;;;;;;18.84;54.49;101567.38;4982803;28;20077;-67
2023/06/14 05:09:36;;;;;;;9.48;2.53;;;;;;;18.84;53.96;101564.72;4957474;28;20145;-67
2023/06/14 05:12:03;;;;;;;8.45;2.92;;;;;;;18.91;53.17;101566.44;4961328;28;20093;-67
2023/06/14 05:14:30;;;;;;;6.63;2.35;;;;;;;18.91;54.45;101571.75;4968261;28;20623;-67
2023/06/14 05:16:57;;;;;;;5.68;2.88;;;;;;;18.89;54.27;101570.28;4969693;28;20613;-67
2023/06/14 05:19:23;;;;;;;6.35;2.70;;;;;;;18.87;55.01;101573.13;4971846;28;20047;-67
2023/06/14 05:21:50;;;;;;;5.68;2.40;;;;;;;18.88;54.86;101574.78;4962160;28;20620;-67
2023/06/14 05:24:17;;;;;;;10.07;2.78;;;;;;;18.89;55.37;101579.09;4982245;28;20084;-68
2023/06/14 05:26:44;;;;;;;8.27;2.53;;;;;;;18.91;54.98;101582.38;4992508;28;20049;-67
2023/06/14 05:29:10;;;;;;;5.47;2.80;;;;;;;18.92;55.05;101573.41;4983858;28;20078;-67
2023/06/14 05:31:37;;;;;;;7.18;2.72;;;;;;;18.99;54.78;101584.13;4974757;28;20050;-67
2023/06/14 05:34:04;;;;;;;7.85;2.88;;;;;;;19.00;54.64;101587.63;4952001;28;20051;-67
2023/06/14 05:36:31;;;;;;;12.70;2.63;;;;;;;19.05;54.50;101585.22;4971502;28;20062;-67
2023/06/14 05:38:59;;;;;;;7.95;2.83;;;;;;;19.10;54.23;101594.31;4969113;28;20051;-67
2023/06/14 05:41:26;;;;;;;;;;;;;;;19.16;54.92;101590.91;4974148;28;20557;-67
2023/06/14 05:43:54;;;;;;;6.18;3.33;;;;;;;19.18;54.36;101590.72;4980706;28;20403;-67
2023/06/14 05:46:24;;;;;;;3.88;2.58;;;;;;;19.16;54.39;101588.25;4952781;28;20074;-67
2023/06/14 05:48:51;;;;;;;6.40;2.75;;;;;;;19.19;54.50;101588.91;4967515;28;20074;-67
2023/06/14 05:51:20;;;;;;;6.07;2.60;;;;;;;19.27;53.78;101588.81;4960151;28;20102;-67
2023/06/14 05:53:48;;;;;;;5.90;2.60;;;;;;;19.24;54.54;101599.81;4963968;28;20121;-67
2023/06/14 05:56:17;;;;;;;3.95;2.35;;;;;;;19.26;54.65;101601.28;4953296;28;20081;-67
2023/06/14 05:58:45;;;;;;;5.32;2.70;;;;;;;19.29;54.53;101603.56;4959045;28;20573;-67
2023/06/14 06:01:13;;;;;;;5.03;2.70;;;;;;;19.29;53.69;101603.56;4966679;28;20801;-67
2023/06/14 06:03:40;;;;;;;8.43;3.10;;;;;;;19.33;53.75;101612.00;4957250;28;20053;-68
2023/06/14 06:06:07;;;;;;;5.32;2.40;;;;;;;19.41;53.15;101619.88;4964749;28;20093;-67
2023/06/14 06:08:35;;;;;;;6.88;2.83;;;;;;;19.39;53.50;101605.94;4959573;28;20113;-67
2023/06/14 06:11:01;;;;;;;5.25;2.13;;;;;;;19.50;52.75;101612.63;4968627;28;20642;-66
2023/06/14 06:13:28;;;;;;;4.93;2.42;;;;;;;19.55;53.46;101612.91;4961592;28;20098;-66
2023/06/14 06:15:56;;;;;;;8.07;2.95;;;;;;;19.61;52.44;101619.31;4961026;28;20443;-66
2023/06/14 06:18:22;;;;;;;2.92;2.58;;;;;;;19.64;52.68;101622.44;4960785;28;20490;-67
2023/06/14 06:20:49;;;;;;;8.30;2.80;;;;;;;19.66;51.91;101620.41;4953279;28;20054;-66
2023/06/14 06:23:15;;;;;;;9.85;2.90;;;;;;;19.71;51.75;101619.84;4951118;28;20061;-66
2023/06/14 06:25:43;;;;;;;7.03;2.75;;;;;;;19.77;51.31;101626.28;4958854;28;20114;-66
2023/06/14 06:28:09;;;;;;;6.35;2.70;;;;;;;19.75;51.56;101626.47;4967012;28;20078;-66
2023/06/14 06:30:36;;;;;;;9.55;2.50;;;;;;;19.81;52.17;101632.88;4961520;28;20468;-66
2023/06/14 06:33:03;;;;;;;7.25;2.47;;;;;;;19.85;52.39;101628.81;4961277;28;20055;-67
2023/06/14 06:35:30;;;;;;;4.78;2.83;;;;;;;19.93;51.55;101632.22;4946562;28;20094;-67
2023/06/14 06:37:57;;;;;;;4.90;3.05;;;;;;;19.99;51.42;101629.78;4945278;28;20150;-67
2023/06/14 06:40:23;;;;;;;6.78;2.70;;;;;;;20.02;51.64;101629.41;4966605;28;20076;-67
2023/06/14 06:42:50;;;;;;;8.02;2.85;;;;;;;20.05;51.44;101632.53;4961439;28;20067;-67
2023/06/14 06:45:16;;;;;;;4.65;2.63;;;;;;;20.10;51.04;101623.97;4971189;28;20113;-68
2023/06/14 06:47:43;;;;;;;4.93;2.75;;;;;;;20.20;51.62;101634.31;4965145;28;20043;-67
2023/06/14 06:50:10;;;;;;;4.30;2.58;;;;;;;20.23;50.98;101645.41;4948158;28;20050;-66
2023/06/14 06:52:36;;;;;;;3.83;2.45;;;;;;;20.26;51.35;101646.84;4960924;28;20055;-66
2023/06/14 06:55:03;;;;;;;7.13;2.95;;;;;;;20.24;51.15;101639.06;4959454;28;20078;-65
2023/06/14 06:57:30;;;;;;;6.67;2.83;;;;;;;20.32;51.72;101644.25;4969316;28;20078;-65
2023/06/14 06:59:57;;;;;;;8.10;2.97;;;;;;;20.37;51.01;101649.00;4962132;28;20074;-67
2023/06/14 07:02:23;;;;;;;5.75;2.70;;;;;;;20.46;50.32;101642.50;4968680;28;20047;-66
2023/06/14 07:04:50;;;;;;;5.00;2.60;;;;;;;20.53;51.00;101653.25;4969204;28;20055;-67
2023/06/14 07:07:17;;;;;;;5.20;2.40;;;;;;;20.60;50.73;101656.84;4970162;28;20139;-68
2023/06/14 07:09:44;;;;;;;6.50;2.58;;;;;;;20.65;50.57;101657.06;4967861;28;20050;-68
2023/06/14 07:12:11;;;;;;;4.50;2.40;;;;;;;20.71;49.90;101658.97;4968332;28;20065;-68
2023/06/14 07:14:38;;;;;;;4.57;2.22;;;;;;;20.74;50.02;101665.75;4960083;28;20053;-67
2023/06/14 07:17:05;;;;;;;5.57;2.60;;;;;;;20.79;49.84;101666.00;4949001;28;20173;-65
2023/06/14 07:19:32;;;;;;;5.88;2.40;;;;;;;20.90;49.45;101660.13;4968117;28;20051;-67
2023/06/14 07:21:59;;;;;;;4.28;2.47;;;;;;;20.94;49.65;101664.06;4966153;28;20109;-66
2023/06/14 07:24:25;;;;;;;3.00;1.90;;;;;;;21.02;49.63;101668.41;4972138;28;20102;-65
2023/06/14 07:26:52;;;;;;;8.05;2.25;;;;;;;21.08;49.83;101664.97;4968999;28;20043;-66
2023/06/14 07:29:20;;;;;;;4.28;2.30;;;;;;;21.10;49.65;101668.25;4963908;28;20085;-66
2023/06/14 07:31:46;;;;;;;2.78;2.03;;;;;;;21.17;49.39;101673.66;4954977;28;20051;-64
2023/06/14 07:34:13;;;;;;;2.85;2.25;;;;;;;21.23;49.52;101675.53;4964630;28;20518;-64
2023/06/14 07:36:39;;;;;;;3.03;2.10;;;;;;;21.28;49.00;101681.09;4969351;28;20062;-65
2023/06/14 07:39:06;;;;;;;3.22;2.10;;;;;;;21.29;48.60;101668.59;4966254;28;20134;-64
2023/06/14 07:41:32;;;;;;;2.65;1.80;;;;;;;21.35;48.40;101677.66;4965285;28;20157;-66
2023/06/14 07:43:59;;;;;;;4.05;1.90;;;;;;;21.40;47.51;101676.03;4966914;28;20125;-64
2023/06/14 07:46:25;;;;;;;2.85;2.05;;;;;;;21.49;47.13;101672.19;4965533;28;20113;-66
2023/06/14 07:48:52;;;;;;;5.97;1.90;;;;;;;21.59;46.88;101677.19;4950787;28;20078;-66
2023/06/14 07:51:19;;;;;;;4.57;1.77;;;;;;;21.62;46.08;101673.28;4961179;28;20057;-64
2023/06/14 07:53:46;;;;;;;4.10;1.55;;;;;;;21.78;46.36;101683.63;4970101;28;20318;-65
2023/06/14 07:56:12;;;;;;;6.85;1.90;;;;;;;21.84;45.95;101674.00;4954261;28;20522;-64
2023/06/14 07:58:39;;;;;;;3.58;1.60;;;;;;;21.96;45.84;101682.25;4966283;28;20057;-64
2023/06/14 08:01:07;;;;;;;3.20;1.75;;;;;;;22.05;45.58;101681.03;4973668;28;20125;-66
2023/06/14 08:03:34;;;;;;;4.32;1.40;;;;;;;22.09;45.03;101683.09;4963901;28;20551;-63
2023/06/14 08:06:01;;;;;;;4.75;1.85;;;;;;;22.15;45.24;101681.47;4967622;28;20147;-64
2023/06/14 08:08:28;;;;;;;3.58;1.40;;;;;;;22.23;45.38;101680.47;4963745;28;20054;-64
2023/06/14 08:10:54;;;;;;;9.10;1.70;;;;;;;22.26;44.97;101678.22;4965123;28;20446;-66
2023/06/14 08:13:21;;;;;;;2.33;1.50;;;;;;;22.43;44.95;101673.31;4957637;28;20085;-64
2023/06/14 08:15:47;;;;;;;2.28;1.50;;;;;;;22.53;44.70;101667.56;4965241;28;20141;-65
2023/06/14 08:18:14;;;;;;;3.22;1.60;;;;;;;22.58;44.58;101677.63;4967117;28;20610;-65
2023/06/14 08:20:41;;;;;;;6.63;1.80;;;;;;;22.60;44.16;101679.09;4967171;28;20152;-65
2023/06/14 08:23:08;;;;;;;2.33;1.52;;;;;;;22.70;42.72;101678.69;4964810;28;20522;-65
2023/06/14 08:25:35;;;;;;;3.15;1.60;;;;;;;22.81;43.11;101671.88;4957042;28;20586;-67
2023/06/14 08:28:02;;;;;;;3.60;1.40;;;;;;;22.96;43.28;101672.47;4970163;28;20047;-65
2023/06/14 08:30:28;;;;;;;5.30;1.65;;;;;;;23.19;43.58;101677.41;4970903;28;20038;-65
2023/06/14 08:32:56;;;;;;;2.38;1.77;;;;;;;23.56;43.39;101687.59;4964963;28;20050;-66
2023/06/14 08:35:40;;;;;;;6.70;1.70;;;;;;;23.96;42.44;101676.72;4969081;28;20058;-66
2023/06/14 08:38:07;;;;;;;8.45;1.83;;;;;;;24.36;41.44;101674.59;4958209;28;20109;-64
2023/06/14 08:40:36;;;;;;;5.65;1.90;;;;;;;24.80;40.97;101669.34;4967454;28;20514;-66
2023/06/14 08:43:03;;;;;;;2.80;1.63;;;;;;;25.26;40.90;101673.41;4960893;28;20579;-65
2023/06/14 08:45:30;;;;;;;3.67;1.90;;;;;;;25.73;40.67;101672.84;4973606;28;20054;-66
2023/06/14 08:47:59;;;;;;;3.47;2.00;;;;;;;26.14;38.80;101672.09;4952264;28;20046;-65
2023/06/14 08:50:29;;;;;;;6.43;1.85;;;;;;;26.50;38.00;101675.69;4968290;28;20047;-65
2023/06/14 08:53:02;;;;;;;6.13;1.80;;;;;;;26.82;36.41;101670.00;4968983;28;20053;-69
2023/06/14 08:55:30;;;;;;;3.72;1.63;;;;;;;27.04;35.30;101680.97;4961134;28;20062;-66
2023/06/14 08:58:03;;;;;;;5.53;1.98;;;;;;;27.38;37.00;101668.56;4965911;28;20546;-68
2023/06/14 09:00:30;;;;;;;4.28;1.90;;;;;;;27.60;35.45;101666.00;4958171;28;20074;-66
2023/06/14 09:02:57;;;;;;;3.10;1.70;;;;;;;27.79;35.65;101671.19;4969956;28;20057;-69
2023/06/14 09:05:26;;;;;;;3.55;1.75;;;;;;;27.96;35.31;101668.59;4971589;28;20054;-67
2023/06/14 09:07:56;;;;;;;2.65;1.70;;;;;;;28.25;35.12;101663.16;4964517;28;20046;-67
2023/06/14 09:10:25;;;;;;;4.65;1.92;;;;;;;28.32;34.42;101663.78;4978202;28;20109;-66
2023/06/14 09:12:53;;;;;;;2.38;1.50;;;;;;;28.57;34.32;101658.81;4964569;28;20512;-69
2023/06/14 09:15:20;;;;;;;4.57;1.77;;;;;;;28.66;33.85;101659.25;4969474;28;20085;-70
2023/06/14 09:17:47;;;;;;;2.25;1.50;;;;;;;28.90;34.63;101662.53;4948155;28;20118;-68
2023/06/14 09:20:18;;;;;;;4.95;1.77;;;;;;;28.97;33.90;101663.19;4969399;28;20063;-68
2023/06/14 09:22:46;;;;;;;3.55;1.80;;;;;;;29.07;33.82;101658.97;4969308;28;20074;-68
2023/06/14 09:25:15;;;;;;;3.45;1.67;;;;;;;29.37;34.22;101663.97;4961880;28;20092;-68
2023/06/14 09:27:58;;;;;;;6.75;1.80;;;;;;;29.54;33.30;101659.31;4962659;28;20085;-68
2023/06/14 09:30:25;;;;;;;3.03;1.67;;;;;;;29.71;33.74;101671.91;4945024;28;20046;-68
2023/06/14 09:32:52;;;;;;;5.40;1.52;;;;;;;29.80;33.54;101669.63;4973197;28;20216;-67
2023/06/14 09:35:18;;;;;;;4.07;1.60;;;;;;;29.82;33.67;101671.00;4956641;28;20066;-67
2023/06/14 09:37:45;;;;;;;3.72;1.60;;;;;;;29.94;33.02;101678.94;4951910;28;20077;-67
2023/06/14 09:40:11;;;;;;;5.53;1.98;;;;;;;30.14;34.09;101676.41;4962610;28;20161;-69
2023/06/14 09:42:38;;;;;;;4.43;1.70;;;;;;;30.24;33.12;101678.38;4965044;28;20059;-67
2023/06/14 09:45:05;;;;;;;3.90;1.60;;;;;;;30.18;32.14;101676.72;4972374;28;20098;-66
2023/06/14 09:47:32;;;;;;;4.70;1.50;;;;;;;30.22;32.16;101679.72;4967908;28;20055;-66
2023/06/14 09:50:00;;;;;;;3.85;1.50;;;;;;;30.24;33.51;101678.38;4970078;28;20463;-66
2023/06/14 09:52:27;;;;;;;4.85;1.95;;;;;;;30.29;31.24;101680.34;4958756;28;20057;-68
2023/06/14 09:54:55;;;;;;;3.00;1.50;;;;;;;30.32;32.22;101677.97;4970780;28;20460;-67
2023/06/14 09:57:23;;;;;;;3.30;1.58;;;;;;;30.45;32.02;101673.19;4968955;28;20050;-68
2023/06/14 09:59:52;;;;;;;;;;;;;;;30.47;32.54;101671.84;4973650;28;20051;-67
2023/06/14 10:02:25;;;;;;;7.03;1.65;;;;;;;30.45;31.86;101662.34;4976179;28;19922;-67
2023/06/14 10:05:03;;;;;;;3.10;1.40;;;;;;;30.54;30.93;101667.03;4960984;28;20054;-68
2023/06/14 10:07:35;;;;;;;3.05;1.30;;;;;;;30.58;31.38;101671.91;4964148;28;20072;-67
2023/06/14 10:10:04;;;;;;;2.47;1.30;;;;;;;30.61;31.48;101666.78;4965025;28;20078;-66
2023/06/14 10:12:31;;;;;;;4.28;1.30;;;;;;;30.65;31.96;101667.88;4973973;28;20423;-67
2023/06/14 10:14:58;;;;;;;3.70;1.50;;;;;;;30.75;31.37;101667.13;4964965;28;20051;-69
2023/06/14 10:17:42;;;;;;;3.40;1.33;;;;;;;30.87;31.59;101664.22;4969476;28;20109;-70
2023/06/14 10:20:21;;;;;;;2.75;1.60;;;;;;;30.89;31.29;101671.06;4962731;28;20335;-65
2023/06/14 10:22:59;;;;;;;1.70;1.60;;;;;;;31.01;31.93;101667.31;4968982;28;20431;-67
2023/06/14 10:25:33;;;;;;;2.88;1.23;;;;;;;31.14;31.85;101670.34;4971985;28;20480;-68
2023/06/14 10:28:12;;;;;;;2.63;1.40;;;;;;;31.12;30.96;101661.66;4962946;28;20046;-68
2023/06/14 10:30:39;;;;;;;4.30;1.30;;;;;;;31.12;30.95;101663.56;4951265;28;20066;-66
2023/06/14 10:33:07;;;;;;;3.08;1.60;;;;;;;31.12;30.78;101675.22;4951322;28;20246;-69
2023/06/14 10:35:34;;;;;;;3.17;1.60;;;;;;;31.18;31.04;101667.13;4965471;28;20089;-69
2023/06/14 10:38:12;;;;;;;2.55;1.30;;;;;;;31.18;30.98;101667.94;4966060;28;20065;-69
2023/06/14 10:40:43;;;;;;;5.63;1.48;;;;;;;31.28;30.72;101654.41;4975615;28;20108;-67
2023/06/14 10:43:22;;;;;;;2.55;1.48;;;;;;;31.43;31.12;101666.41;4968137;28;20065;-67
2023/06/14 10:46:15;;;;;;;6.68;1.83;;;;;;;31.50;31.35;101670.53;4967368;28;20097;-68
2023/06/14 10:48:44;;;;;;;104.45;10.43;;;;;;;31.42;29.90;101659.34;4962748;28;20064;-66
2023/06/14 10:51:21;;;;;;;5.50;1.70;;;;;;;31.55;29.94;101658.88;4957947;28;20051;-66
2023/06/14 10:53:51;;;;;;;15.73;2.60;;;;;;;31.62;30.53;101664.03;4968947;28;20226;-68
2023/06/14 10:56:30;;;;;;;6.45;2.00;;;;;;;31.60;30.04;101664.31;4957368;28;20058;-67
2023/06/14 10:58:57;;;;;;;6.28;1.90;;;;;;;31.68;29.94;101662.97;4961552;28;20070;-68
2023/06/14 11:01:33;;;;;;;3.30;1.65;;;;;;;31.68;30.30;101657.56;4957424;28;20055;-66
2023/06/14 11:04:08;;;;;;;4.65;1.73;;;;;;;31.80;30.30;101658.09;4965698;28;20583;-66
2023/06/14 11:06:46;;;;;;;3.97;1.60;;;;;;;31.91;30.03;101661.63;4965442;28;20093;-67
2023/06/14 11:09:37;;;;;;;3.80;1.70;;;;;;;31.92;29.86;101647.81;4965312;28;20061;-67
2023/06/14 11:12:10;;;;;;;4.10;1.40;;;;;;;31.85;29.67;101660.84;4956172;28;20408;-66
2023/06/14 11:14:36;;;;;;;3.78;1.80;;;;;;;31.85;29.57;101658.13;4952488;28;20055;-67
2023/06/14 11:17:03;;;;;;;3.45;1.40;;;;;;;31.88;29.84;101660.28;4967484;28;20116;-68
2023/06/14 11:19:30;;;;;;;4.15;1.83;;;;;;;32.12;29.86;101655.16;4950628;28;20200;-68
2023/06/14 11:21:56;;;;;;;4.53;2.00;;;;;;;32.22;29.55;101662.50;4962657;28;20054;-69
2023/06/14 11:24:23;;;;;;;3.25;1.52;;;;;;;32.17;29.58;101662.50;4967232;28;20047;-70
2023/06/14 11:26:51;;;;;;;5.20;1.50;;;;;;;32.20;29.72;101661.13;4952568;28;20053;-69
2023/06/14 11:29:20;;;;;;;6.40;2.85;;;;;;;32.34;30.12;101658.69;4961646;28;20051;-68
2023/06/14 11:31:47;;;;;;;4.93;1.77;;;;;;;32.25;29.57;101659.25;4948169;28;20315;-67